This is the latest recevied weather packets stored in our database for station/object WMKC. If no packets are shown the sender has not sent any weather packets the latest 10 day(s).
| Time | Temp. | Humidity | Pressure | Rain* | Wind** | Luminosity | Snow |
|---|---|---|---|---|---|---|---|
| 1777853428 | 26.67° C | 83% | 1009 hPa | - | - | - | - |
| 1777849828 | 25.56° C | 83% | 1009 hPa | - | - | - | - |
| 1777846238 | 26.67° C | 78% | 1008 hPa | - | - | - | - |
| 1777842630 | 26.67° C | 83% | 1008 hPa | - | - | - | - |
| 1777839027 | 26.67° C | 83% | 1008 hPa | - | - | - | - |
| 1777835428 | 26.67° C | 83% | 1008 hPa | - | - | - | - |
| 1777831827 | 26.67° C | 83% | 1009 hPa | - | - | - | - |
| 1777828237 | 27.78° C | 78% | 1010 hPa | - | - | - | - |
| 1777824627 | 27.78° C | 78% | 1010 hPa | - | - | - | - |
| 1777821032 | 28.89° C | 74% | 1009 hPa | - | - | - | - |
| 1777817424 | 28.89° C | 74% | 1009 hPa | - | - | - | - |
| 1777813823 | 28.89° C | 70% | 1008 hPa | - | - | - | - |
| 1777810238 | 30° C | 70% | 1007 hPa | - | - | - | - |
| 1777806630 | 30.56° C | 66% | 1006 hPa | - | - | - | - |
| 1777803026 | 31.67° C | 62% | 1006 hPa | - | - | - | - |
| 1777799426 | 31.67° C | 59% | 1006 hPa | - | - | - | - |
| 1777795838 | 32.78° C | 59% | 1006 hPa | - | - | - | - |
| 1777792227 | 32.78° C | 59% | 1007 hPa | - | - | - | - |
| 1777788627 | 32.78° C | 59% | 1009 hPa | - | - | - | - |
| 1777785026 | 32.78° C | 55% | 1010 hPa | - | - | - | - |
| 1777781437 | 32.78° C | 55% | 1010 hPa | - | - | - | - |
| 1777777827 | 31.67° C | 59% | 1011 hPa | - | - | - | - |
| 1777774230 | 30.56° C | 62% | 1010 hPa | - | - | - | - |
| 1777770626 | 30° C | 66% | 1010 hPa | - | - | - | - |
| 1777767036 | 26.67° C | 78% | 1009 hPa | - | - | - | - |
* Rain since midnight (hover to see other rain measurements)
** Current wind speed in m/s (hover to see current wind gust speed)